createdAt,value
2022-10-19T00:03:42.140Z,89.82
2022-10-19T00:07:43.662Z,89.77
2022-10-19T00:11:48.539Z,90.24
2022-10-19T00:15:50.015Z,89.90
2022-10-19T00:19:51.464Z,90.20
2022-10-19T00:23:53.211Z,90.06
2022-10-19T00:27:54.811Z,90.34
2022-10-19T00:31:56.396Z,90.08
2022-10-19T00:35:58.041Z,90.05
2022-10-19T00:39:59.610Z,89.81
2022-10-19T00:44:11.661Z,89.85
2022-10-19T00:48:15.388Z,89.95
2022-10-19T00:52:20.905Z,90.28
2022-10-19T00:56:23.134Z,90.01
2022-10-19T01:00:24.863Z,90.38
2022-10-19T01:04:27.897Z,90.32
2022-10-19T01:08:30.265Z,90.19
2022-10-19T01:13:06.772Z,90.39
2022-10-19T01:17:23.252Z,90.50
2022-10-19T01:21:28.713Z,90.65
2022-10-19T01:25:49.013Z,90.41
2022-10-19T01:30:13.026Z,90.61
2022-10-19T01:34:23.138Z,90.59
2022-10-19T01:38:40.591Z,90.41
2022-10-19T01:43:02.683Z,90.36
2022-10-19T01:47:09.922Z,90.69
2022-10-19T01:51:19.649Z,90.50
2022-10-19T01:55:22.684Z,90.59
2022-10-19T01:59:26.290Z,90.82
2022-10-19T02:03:28.517Z,90.86
2022-10-19T02:07:30.687Z,91.48
2022-10-19T02:11:33.451Z,91.43
2022-10-19T02:15:40.984Z,91.55
2022-10-19T02:19:43.260Z,91.18
2022-10-19T02:23:48.356Z,90.63
2022-10-19T02:27:52.445Z,89.99
2022-10-19T02:31:54.501Z,89.35
2022-10-19T02:35:57.459Z,89.82
2022-10-19T02:39:59.147Z,89.54
2022-10-19T02:44:10.233Z,89.92
2022-10-19T02:48:17.533Z,89.89
2022-10-19T02:52:19.311Z,89.46
2022-10-19T02:56:21.048Z,88.99
2022-10-19T03:00:22.831Z,88.83
2022-10-19T03:04:24.409Z,88.31
2022-10-19T03:08:26.107Z,88.50
2022-10-19T03:12:27.647Z,88.52
2022-10-19T03:16:29.174Z,88.03
2022-10-19T03:20:30.703Z,87.36
2022-10-19T03:24:33.082Z,86.66
2022-10-19T03:28:34.788Z,86.78
2022-10-19T03:32:36.404Z,86.82
2022-10-19T03:36:39.581Z,86.62
2022-10-19T03:40:41.064Z,86.64
2022-10-19T03:44:42.524Z,86.55
2022-10-19T03:48:44.236Z,86.38
2022-10-19T03:52:45.742Z,86.29
2022-10-19T03:56:47.341Z,86.13
2022-10-19T04:00:48.807Z,86.27
2022-10-19T04:04:50.442Z,85.59
2022-10-19T04:08:51.914Z,84.72
2022-10-19T04:12:53.980Z,83.99
2022-10-19T04:16:55.696Z,84.13
2022-10-19T04:20:58.174Z,84.19
2022-10-19T04:24:59.725Z,84.59
2022-10-19T04:29:01.975Z,84.81
2022-10-19T04:33:03.766Z,84.89
2022-10-19T04:37:05.469Z,84.85
2022-10-19T04:41:10.135Z,84.83
2022-10-19T04:45:11.572Z,85.27
2022-10-19T04:49:16.379Z,85.11
2022-10-19T04:53:21.241Z,85.08
2022-10-19T04:57:22.833Z,84.83
2022-10-19T05:01:26.053Z,84.71
2022-10-19T05:05:27.608Z,84.07
2022-10-19T05:09:29.260Z,84.38
2022-10-19T05:13:32.894Z,84.35
2022-10-19T05:17:34.915Z,83.99
2022-10-19T05:21:36.866Z,83.65
2022-10-19T05:25:38.358Z,83.96
2022-10-19T05:29:39.962Z,84.16
2022-10-19T05:33:42.586Z,84.00
2022-10-19T05:37:44.060Z,84.30
2022-10-19T05:41:47.353Z,83.99
2022-10-19T05:45:48.887Z,83.88
2022-10-19T05:49:50.515Z,84.00
2022-10-19T05:53:54.631Z,83.53
2022-10-19T05:57:56.429Z,83.61
2022-10-19T06:01:57.985Z,83.52
2022-10-19T06:06:03.041Z,83.87
2022-10-19T06:10:04.982Z,83.69
2022-10-19T06:14:11.657Z,83.11
2022-10-19T06:18:13.393Z,82.95
2022-10-19T06:23:05.681Z,81.40
2022-10-19T06:27:57.214Z,81.51
2022-10-19T06:32:00.158Z,80.95
2022-10-19T06:36:35.527Z,77.22
2022-10-19T06:40:37.173Z,76.02
2022-10-19T06:44:42.381Z,77.26
2022-10-19T06:48:44.085Z,76.74
2022-10-19T06:52:46.048Z,75.73
2022-10-19T06:57:57.180Z,74.15
2022-10-19T07:01:58.769Z,73.59
2022-10-19T07:06:02.624Z,73.43
2022-10-19T07:10:04.697Z,73.61
2022-10-19T07:14:06.309Z,72.18
2022-10-19T07:18:07.898Z,71.92
2022-10-19T07:22:09.374Z,72.10
2022-10-19T07:26:12.608Z,72.21
2022-10-19T07:30:14.102Z,71.25
2022-10-19T07:34:17.106Z,71.50
2022-10-19T07:38:18.812Z,69.93
2022-10-19T07:42:23.410Z,69.77
2022-10-19T07:46:29.167Z,70.27
2022-10-19T07:50:30.676Z,70.31
2022-10-19T07:54:32.234Z,69.25
2022-10-19T07:58:34.323Z,69.29
2022-10-19T08:02:54.692Z,68.57
2022-10-19T08:06:57.363Z,69.07
2022-10-19T08:11:06.782Z,69.01
2022-10-19T08:15:08.627Z,69.51
2022-10-19T08:19:12.764Z,70.00
2022-10-19T08:23:14.324Z,68.73
2022-10-19T08:27:16.733Z,69.09
2022-10-19T08:31:21.181Z,68.88
2022-10-19T08:35:22.779Z,68.73
2022-10-19T08:39:24.365Z,69.39
2022-10-19T08:43:35.118Z,69.44
2022-10-19T08:47:39.883Z,68.90
2022-10-19T08:51:45.100Z,68.25
2022-10-19T08:56:03.754Z,68.78
2022-10-19T09:00:35.178Z,67.97
2022-10-19T09:04:40.069Z,67.65
2022-10-19T09:08:41.630Z,67.61
2022-10-19T09:13:14.954Z,67.16
2022-10-19T09:17:17.141Z,67.72
2022-10-19T09:21:30.903Z,65.39
2022-10-19T09:25:39.439Z,64.34
2022-10-19T09:29:55.816Z,62.92
2022-10-19T09:34:01.446Z,63.03
2022-10-19T09:38:06.679Z,61.00
2022-10-19T09:42:17.985Z,59.38
2022-10-19T09:51:02.375Z,49.73
2022-10-19T09:55:13.080Z,50.83
2022-10-19T09:59:23.024Z,53.38
2022-10-19T10:03:53.822Z,56.16
2022-10-19T10:07:57.990Z,57.75
2022-10-19T10:17:59.769Z,52.97
2022-10-19T10:22:03.867Z,51.29
2022-10-19T10:26:30.324Z,53.37
2022-10-19T10:31:01.630Z,53.44
2022-10-19T10:35:07.714Z,54.33
2022-10-19T10:39:16.697Z,56.31
2022-10-19T10:43:56.720Z,57.56
2022-10-19T10:48:30.352Z,57.07
2022-10-19T10:52:32.494Z,57.41
2022-10-19T10:57:12.826Z,58.36
2022-10-19T11:01:20.050Z,57.81
2022-10-19T11:05:59.038Z,57.64
2022-10-19T11:10:51.150Z,56.55
2022-10-19T11:15:02.485Z,53.11
2022-10-19T11:19:24.409Z,52.27
2022-10-19T11:24:07.808Z,54.74
2022-10-19T11:28:42.878Z,55.39
2022-10-19T11:33:34.348Z,55.81
2022-10-19T11:43:15.763Z,53.63
2022-10-19T11:48:02.128Z,54.14
2022-10-19T11:52:29.924Z,52.37
2022-10-19T11:57:01.860Z,53.26
2022-10-19T12:01:23.941Z,53.79
2022-10-19T12:05:41.138Z,53.39
2022-10-19T12:10:04.163Z,51.16
2022-10-19T12:20:18.907Z,50.68
2022-10-19T12:24:25.333Z,49.94
2022-10-19T12:28:32.916Z,49.23
2022-10-19T12:32:51.989Z,49.40
2022-10-19T12:37:12.694Z,49.73
2022-10-19T12:41:33.010Z,49.21
2022-10-19T12:45:39.456Z,50.48
2022-10-19T12:49:49.606Z,50.14
2022-10-19T12:53:51.307Z,49.84
2022-10-19T12:58:01.371Z,49.70
2022-10-19T13:02:06.392Z,50.51
2022-10-19T13:06:15.572Z,51.48
2022-10-19T13:10:21.539Z,51.57
2022-10-19T13:14:48.804Z,52.10
2022-10-19T13:19:40.425Z,52.17
2022-10-19T13:24:24.479Z,53.15
2022-10-19T13:28:29.723Z,53.06
2022-10-19T13:33:21.163Z,53.05
2022-10-19T13:37:23.129Z,52.51
2022-10-19T13:41:46.636Z,53.53
2022-10-19T13:46:18.376Z,54.53
2022-10-19T13:50:34.021Z,54.33
2022-10-19T13:55:19.911Z,54.20
2022-10-19T13:59:50.416Z,53.44
2022-10-19T14:04:17.326Z,54.20
2022-10-19T14:08:25.307Z,54.26
2022-10-19T14:12:30.076Z,55.00
2022-10-19T14:16:31.837Z,55.27
2022-10-19T14:20:40.659Z,53.81
2022-10-19T14:25:18.164Z,53.85
2022-10-19T14:30:10.747Z,53.03
2022-10-19T14:34:14.759Z,53.09
2022-10-19T14:38:26.417Z,53.88
2022-10-19T14:42:45.716Z,54.71
2022-10-19T14:46:48.440Z,55.90
2022-10-19T14:50:56.163Z,55.06
2022-10-19T14:54:59.988Z,55.10
2022-10-19T14:59:52.381Z,56.80
2022-10-19T15:04:44.148Z,56.24
2022-10-19T15:09:47.359Z,56.56
2022-10-19T15:14:17.581Z,56.10
2022-10-19T15:18:44.030Z,56.26
2022-10-19T15:22:44.680Z,56.66
2022-10-19T15:27:22.808Z,56.83
2022-10-19T15:31:27.837Z,56.66
2022-10-19T15:35:32.344Z,57.53
2022-10-19T15:39:41.015Z,57.85
2022-10-19T15:43:49.662Z,56.82
2022-10-19T15:48:09.959Z,56.59
2022-10-19T15:52:17.341Z,57.03
2022-10-19T15:56:20.935Z,57.96
2022-10-19T16:00:22.625Z,58.66
2022-10-19T16:05:14.117Z,59.13
2022-10-19T16:09:20.616Z,58.37
2022-10-19T16:13:29.632Z,58.68
2022-10-19T16:17:32.435Z,60.20
2022-10-19T16:21:45.636Z,59.94
2022-10-19T16:25:49.821Z,59.66
2022-10-19T16:29:51.549Z,59.02
2022-10-19T16:33:53.243Z,59.39
2022-10-19T16:37:54.823Z,60.67
2022-10-19T16:41:56.449Z,60.55
2022-10-19T16:45:58.139Z,61.47
2022-10-19T16:50:20.330Z,61.49
2022-10-19T16:54:26.740Z,61.83
2022-10-19T16:58:28.535Z,62.58
2022-10-19T17:02:30.131Z,62.90
2022-10-19T17:06:33.897Z,62.66
2022-10-19T17:10:35.557Z,63.66
2022-10-19T17:14:39.536Z,65.98
2022-10-19T17:18:42.987Z,66.24
2022-10-19T17:22:44.770Z,67.02
2022-10-19T17:26:46.272Z,67.88
2022-10-19T17:30:48.996Z,68.30
2022-10-19T17:34:50.595Z,68.87
2022-10-19T17:38:53.546Z,69.80
2022-10-19T17:42:55.066Z,70.47
2022-10-19T17:46:56.939Z,71.32
2022-10-19T17:51:03.828Z,72.01
2022-10-19T17:55:12.137Z,72.51
2022-10-19T17:59:14.349Z,73.23
2022-10-19T18:03:24.782Z,72.98
2022-10-19T18:07:35.311Z,74.37
2022-10-19T18:11:41.049Z,74.81
2022-10-19T18:15:42.661Z,75.29
2022-10-19T18:19:47.606Z,75.76
2022-10-19T18:23:49.392Z,75.97
2022-10-19T18:27:58.851Z,76.20
2022-10-19T18:32:01.398Z,77.50
2022-10-19T18:36:03.620Z,77.64
2022-10-19T18:40:05.771Z,78.10
2022-10-19T18:44:08.814Z,78.65
2022-10-19T18:48:11.555Z,78.50
2022-10-19T18:52:14.255Z,78.30
2022-10-19T18:56:18.675Z,79.29
2022-10-19T19:00:20.356Z,79.38
2022-10-19T19:04:22.605Z,79.57
2022-10-19T19:08:24.159Z,79.59
2022-10-19T19:12:27.095Z,80.50
2022-10-19T19:16:32.332Z,80.86
2022-10-19T19:20:34.948Z,80.00
2022-10-19T19:24:36.822Z,80.29
2022-10-19T19:28:41.495Z,80.42
2022-10-19T19:32:44.089Z,80.53
2022-10-19T19:36:49.093Z,81.05
2022-10-19T19:40:50.819Z,81.00
2022-10-19T19:44:52.558Z,81.60
2022-10-19T19:48:59.968Z,81.61
2022-10-19T19:53:04.934Z,81.52
2022-10-19T19:57:07.748Z,81.81
2022-10-19T20:01:15.477Z,81.88
2022-10-19T20:05:17.239Z,81.59
2022-10-19T20:09:18.693Z,81.72
2022-10-19T20:13:20.135Z,81.78
2022-10-19T20:17:23.756Z,82.22
2022-10-19T20:21:27.558Z,82.52
2022-10-19T20:25:29.090Z,81.93
2022-10-19T20:29:30.776Z,81.72
2022-10-19T20:33:34.219Z,81.76
2022-10-19T20:37:36.000Z,82.42
2022-10-19T20:41:37.768Z,82.66
2022-10-19T20:45:42.292Z,83.17
2022-10-19T20:49:43.828Z,83.18
2022-10-19T20:53:47.684Z,83.29
2022-10-19T20:58:00.679Z,83.39
2022-10-19T21:02:02.240Z,83.45
2022-10-19T21:06:07.961Z,84.09
2022-10-19T21:10:09.604Z,84.08
2022-10-19T21:14:17.577Z,84.09
2022-10-19T21:18:20.064Z,84.49
2022-10-19T21:22:21.691Z,84.84
2022-10-19T21:26:25.863Z,84.72
2022-10-19T21:30:27.782Z,83.71
2022-10-19T21:34:30.921Z,83.11
2022-10-19T21:38:39.399Z,83.93
2022-10-19T21:42:41.217Z,83.61
2022-10-19T21:46:43.654Z,83.71
2022-10-19T21:50:45.237Z,83.87
2022-10-19T21:54:47.026Z,84.13
2022-10-19T21:58:51.409Z,83.66
2022-10-19T22:02:55.546Z,83.59
2022-10-19T22:06:59.474Z,83.81
2022-10-19T22:11:09.107Z,83.88
2022-10-19T22:15:10.997Z,83.61
2022-10-19T22:19:13.274Z,83.80
2022-10-19T22:23:14.839Z,84.76
2022-10-19T22:27:16.541Z,83.49
2022-10-19T22:31:18.651Z,83.18
2022-10-19T22:35:20.287Z,84.07
2022-10-19T22:39:23.189Z,84.52
2022-10-19T22:43:27.051Z,84.06
2022-10-19T22:47:30.461Z,84.01
2022-10-19T22:51:32.053Z,83.64
2022-10-19T22:55:33.679Z,83.54
2022-10-19T22:59:35.560Z,84.22
2022-10-19T23:03:39.250Z,83.76
2022-10-19T23:07:40.777Z,84.22
2022-10-19T23:11:42.254Z,84.06
2022-10-19T23:15:44.775Z,84.21
2022-10-19T23:19:46.375Z,84.26
2022-10-19T23:23:48.003Z,84.64
2022-10-19T23:27:49.515Z,85.55
2022-10-19T23:31:51.176Z,85.75
2022-10-19T23:35:52.721Z,86.35
2022-10-19T23:39:54.371Z,86.68
2022-10-19T23:43:55.812Z,87.35
2022-10-19T23:47:57.264Z,87.34
2022-10-19T23:51:58.701Z,87.47
2022-10-19T23:56:10.438Z,87.24
